sensor_id;sensor_type;location;lat;lon;timestamp;temperature;humidity
52565;DHT22;38460;53.106;7.004;2024-02-23T00:00:12;5.10;99.90
52565;DHT22;38460;53.106;7.004;2024-02-23T00:02:38;5.20;99.90
52565;DHT22;38460;53.106;7.004;2024-02-23T00:05:04;5.10;99.90
52565;DHT22;38460;53.106;7.004;2024-02-23T00:07:30;5.10;99.90
52565;DHT22;38460;53.106;7.004;2024-02-23T00:09:56;5.10;99.90
52565;DHT22;38460;53.106;7.004;2024-02-23T00:12:21;5.10;99.90
52565;DHT22;38460;53.106;7.004;2024-02-23T00:14:47;5.00;99.90
52565;DHT22;38460;53.106;7.004;2024-02-23T00:17:13;5.00;99.90
52565;DHT22;38460;53.106;7.004;2024-02-23T00:19:39;5.00;99.90
52565;DHT22;38460;53.106;7.004;2024-02-23T00:22:05;5.00;99.90
52565;DHT22;38460;53.106;7.004;2024-02-23T00:24:30;5.00;99.90
52565;DHT22;38460;53.106;7.004;2024-02-23T00:26:56;5.00;99.90
52565;DHT22;38460;53.106;7.004;2024-02-23T00:29:22;5.00;99.90
52565;DHT22;38460;53.106;7.004;2024-02-23T00:31:49;4.90;99.90
52565;DHT22;38460;53.106;7.004;2024-02-23T00:34:15;5.00;99.90
52565;DHT22;38460;53.106;7.004;2024-02-23T00:36:41;5.00;99.90
52565;DHT22;38460;53.106;7.004;2024-02-23T00:39:07;4.90;99.90
52565;DHT22;38460;53.106;7.004;2024-02-23T00:41:34;5.00;99.90
52565;DHT22;38460;53.106;7.004;2024-02-23T00:44:00;4.90;99.90
52565;DHT22;38460;53.106;7.004;2024-02-23T00:46:26;5.00;99.90
52565;DHT22;38460;53.106;7.004;2024-02-23T00:48:52;4.90;99.90
52565;DHT22;38460;53.106;7.004;2024-02-23T00:51:17;5.00;99.90
52565;DHT22;38460;53.106;7.004;2024-02-23T00:53:43;4.90;99.90
52565;DHT22;38460;53.106;7.004;2024-02-23T00:56:09;5.00;99.90
52565;DHT22;38460;53.106;7.004;2024-02-23T00:58:35;4.90;99.90
52565;DHT22;38460;53.106;7.004;2024-02-23T01:01:00;4.90;99.90
52565;DHT22;38460;53.106;7.004;2024-02-23T01:03:26;4.90;99.90
52565;DHT22;38460;53.106;7.004;2024-02-23T01:05:52;4.90;99.90
52565;DHT22;38460;53.106;7.004;2024-02-23T01:08:19;4.80;99.90
52565;DHT22;38460;53.106;7.004;2024-02-23T01:10:45;4.80;99.90
52565;DHT22;38460;53.106;7.004;2024-02-23T01:13:10;4.80;99.90
52565;DHT22;38460;53.106;7.004;2024-02-23T01:15:36;4.70;99.90
52565;DHT22;38460;53.106;7.004;2024-02-23T01:18:03;4.70;99.90
52565;DHT22;38460;53.106;7.004;2024-02-23T01:20:29;4.70;99.90
52565;DHT22;38460;53.106;7.004;2024-02-23T01:22:55;4.70;99.90
52565;DHT22;38460;53.106;7.004;2024-02-23T01:25:20;4.60;99.90
52565;DHT22;38460;53.106;7.004;2024-02-23T01:27:46;4.50;99.90
52565;DHT22;38460;53.106;7.004;2024-02-23T01:30:12;4.50;99.90
52565;DHT22;38460;53.106;7.004;2024-02-23T01:32:37;4.40;99.90
52565;DHT22;38460;53.106;7.004;2024-02-23T01:35:07;4.30;99.90
52565;DHT22;38460;53.106;7.004;2024-02-23T01:37:34;4.20;99.90
52565;DHT22;38460;53.106;7.004;2024-02-23T01:40:00;4.20;99.90
52565;DHT22;38460;53.106;7.004;2024-02-23T01:42:26;4.10;99.90
52565;DHT22;38460;53.106;7.004;2024-02-23T01:44:52;4.10;99.90
52565;DHT22;38460;53.106;7.004;2024-02-23T01:47:18;4.10;99.90
52565;DHT22;38460;53.106;7.004;2024-02-23T01:49:46;4.10;99.90
52565;DHT22;38460;53.106;7.004;2024-02-23T01:52:13;4.10;99.90
52565;DHT22;38460;53.106;7.004;2024-02-23T01:54:40;4.10;99.90
52565;DHT22;38460;53.106;7.004;2024-02-23T01:57:06;4.10;99.90
52565;DHT22;38460;53.106;7.004;2024-02-23T01:59:35;4.10;99.90
52565;DHT22;38460;53.106;7.004;2024-02-23T02:02:03;4.10;99.90
52565;DHT22;38460;53.106;7.004;2024-02-23T02:04:29;4.10;99.90
52565;DHT22;38460;53.106;7.004;2024-02-23T02:06:55;4.10;99.90
52565;DHT22;38460;53.106;7.004;2024-02-23T02:09:21;4.10;99.90
52565;DHT22;38460;53.106;7.004;2024-02-23T02:11:48;4.00;99.90
52565;DHT22;38460;53.106;7.004;2024-02-23T02:14:15;4.10;99.90
52565;DHT22;38460;53.106;7.004;2024-02-23T02:16:41;4.10;99.90
52565;DHT22;38460;53.106;7.004;2024-02-23T02:19:07;4.10;99.90
52565;DHT22;38460;53.106;7.004;2024-02-23T02:21:33;4.10;99.90
52565;DHT22;38460;53.106;7.004;2024-02-23T02:23:59;4.10;99.90
52565;DHT22;38460;53.106;7.004;2024-02-23T02:26:25;4.10;99.90
52565;DHT22;38460;53.106;7.004;2024-02-23T02:28:51;4.20;99.90
52565;DHT22;38460;53.106;7.004;2024-02-23T02:31:18;4.20;99.90
52565;DHT22;38460;53.106;7.004;2024-02-23T02:33:44;4.20;99.90
52565;DHT22;38460;53.106;7.004;2024-02-23T02:36:09;4.30;99.90
52565;DHT22;38460;53.106;7.004;2024-02-23T02:38:35;4.30;99.90
52565;DHT22;38460;53.106;7.004;2024-02-23T02:41:01;4.30;99.90
52565;DHT22;38460;53.106;7.004;2024-02-23T02:43:27;4.30;99.90
52565;DHT22;38460;53.106;7.004;2024-02-23T02:45:53;4.30;99.90
52565;DHT22;38460;53.106;7.004;2024-02-23T02:48:19;4.40;99.90
52565;DHT22;38460;53.106;7.004;2024-02-23T02:50:44;3.20;99.90
52565;DHT22;38460;53.106;7.004;2024-02-23T02:53:10;4.40;99.90
52565;DHT22;38460;53.106;7.004;2024-02-23T02:55:41;4.40;99.90
52565;DHT22;38460;53.106;7.004;2024-02-23T02:58:06;4.40;99.90
52565;DHT22;38460;53.106;7.004;2024-02-23T03:00:33;4.40;99.90
52565;DHT22;38460;53.106;7.004;2024-02-23T03:02:59;4.40;99.90
52565;DHT22;38460;53.106;7.004;2024-02-23T03:05:25;4.40;99.90
52565;DHT22;38460;53.106;7.004;2024-02-23T03:07:51;4.40;99.90
52565;DHT22;38460;53.106;7.004;2024-02-23T03:10:17;4.40;99.90
52565;DHT22;38460;53.106;7.004;2024-02-23T03:12:42;4.40;99.90
52565;DHT22;38460;53.106;7.004;2024-02-23T03:15:08;4.50;99.90
52565;DHT22;38460;53.106;7.004;2024-02-23T03:17:35;4.50;99.90
52565;DHT22;38460;53.106;7.004;2024-02-23T03:20:01;4.50;99.90
52565;DHT22;38460;53.106;7.004;2024-02-23T03:22:30;4.50;99.90
52565;DHT22;38460;53.106;7.004;2024-02-23T03:24:56;4.50;99.90
52565;DHT22;38460;53.106;7.004;2024-02-23T03:27:28;4.50;99.90
52565;DHT22;38460;53.106;7.004;2024-02-23T03:29:55;4.50;99.90
52565;DHT22;38460;53.106;7.004;2024-02-23T03:32:20;4.50;99.90
52565;DHT22;38460;53.106;7.004;2024-02-23T03:34:46;4.50;99.90
52565;DHT22;38460;53.106;7.004;2024-02-23T03:37:12;4.50;99.90
52565;DHT22;38460;53.106;7.004;2024-02-23T03:39:38;4.50;99.90
52565;DHT22;38460;53.106;7.004;2024-02-23T03:42:04;4.60;99.90
52565;DHT22;38460;53.106;7.004;2024-02-23T03:44:30;4.60;99.90
52565;DHT22;38460;53.106;7.004;2024-02-23T03:46:57;4.60;99.90
52565;DHT22;38460;53.106;7.004;2024-02-23T03:49:22;4.60;99.90
52565;DHT22;38460;53.106;7.004;2024-02-23T03:51:48;4.60;99.90
52565;DHT22;38460;53.106;7.004;2024-02-23T03:54:14;4.60;99.90
52565;DHT22;38460;53.106;7.004;2024-02-23T03:56:41;4.50;99.90
52565;DHT22;38460;53.106;7.004;2024-02-23T03:59:07;4.50;99.90
52565;DHT22;38460;53.106;7.004;2024-02-23T04:01:39;4.60;99.90
52565;DHT22;38460;53.106;7.004;2024-02-23T04:04:05;4.60;99.90
52565;DHT22;38460;53.106;7.004;2024-02-23T04:06:32;4.50;99.90
52565;DHT22;38460;53.106;7.004;2024-02-23T04:08:58;4.50;99.90
52565;DHT22;38460;53.106;7.004;2024-02-23T04:11:24;4.60;99.90
52565;DHT22;38460;53.106;7.004;2024-02-23T04:13:50;4.50;99.90
52565;DHT22;38460;53.106;7.004;2024-02-23T04:16:15;4.50;99.90
52565;DHT22;38460;53.106;7.004;2024-02-23T04:18:41;4.50;99.90
52565;DHT22;38460;53.106;7.004;2024-02-23T04:21:07;4.50;99.90
52565;DHT22;38460;53.106;7.004;2024-02-23T04:23:32;4.50;99.90
52565;DHT22;38460;53.106;7.004;2024-02-23T04:25:59;4.50;99.90
52565;DHT22;38460;53.106;7.004;2024-02-23T04:28:24;4.50;99.90
52565;DHT22;38460;53.106;7.004;2024-02-23T04:30:52;4.60;99.90
52565;DHT22;38460;53.106;7.004;2024-02-23T04:33:18;4.50;99.90
52565;DHT22;38460;53.106;7.004;2024-02-23T04:35:43;4.50;99.90
52565;DHT22;38460;53.106;7.004;2024-02-23T04:38:09;4.60;99.90
52565;DHT22;38460;53.106;7.004;2024-02-23T04:40:35;4.60;99.90
52565;DHT22;38460;53.106;7.004;2024-02-23T04:43:01;4.60;99.90
52565;DHT22;38460;53.106;7.004;2024-02-23T04:45:26;4.50;99.90
52565;DHT22;38460;53.106;7.004;2024-02-23T04:47:52;4.50;99.90
52565;DHT22;38460;53.106;7.004;2024-02-23T04:50:18;4.50;99.90
52565;DHT22;38460;53.106;7.004;2024-02-23T04:52:44;4.50;99.90
52565;DHT22;38460;53.106;7.004;2024-02-23T04:55:09;4.50;99.90
52565;DHT22;38460;53.106;7.004;2024-02-23T04:57:36;4.50;99.90
52565;DHT22;38460;53.106;7.004;2024-02-23T05:00:04;4.40;99.90
52565;DHT22;38460;53.106;7.004;2024-02-23T05:02:30;4.40;99.90
52565;DHT22;38460;53.106;7.004;2024-02-23T05:05:02;4.40;99.90
52565;DHT22;38460;53.106;7.004;2024-02-23T05:07:30;4.40;99.90
52565;DHT22;38460;53.106;7.004;2024-02-23T05:09:57;4.30;99.90
52565;DHT22;38460;53.106;7.004;2024-02-23T05:12:23;4.30;99.90
52565;DHT22;38460;53.106;7.004;2024-02-23T05:14:48;4.30;99.90
52565;DHT22;38460;53.106;7.004;2024-02-23T05:17:14;4.30;99.90
52565;DHT22;38460;53.106;7.004;2024-02-23T05:19:40;4.30;99.90
52565;DHT22;38460;53.106;7.004;2024-02-23T05:22:06;4.20;99.90
52565;DHT22;38460;53.106;7.004;2024-02-23T05:24:32;4.20;99.90
52565;DHT22;38460;53.106;7.004;2024-02-23T05:26:57;4.20;99.90
52565;DHT22;38460;53.106;7.004;2024-02-23T05:29:24;4.20;99.90
52565;DHT22;38460;53.106;7.004;2024-02-23T05:31:52;4.30;99.90
52565;DHT22;38460;53.106;7.004;2024-02-23T05:34:18;4.30;99.90
52565;DHT22;38460;53.106;7.004;2024-02-23T05:36:45;4.30;99.90
52565;DHT22;38460;53.106;7.004;2024-02-23T05:39:14;4.30;99.90
52565;DHT22;38460;53.106;7.004;2024-02-23T05:41:43;4.30;99.90
52565;DHT22;38460;53.106;7.004;2024-02-23T05:44:09;4.30;99.90
52565;DHT22;38460;53.106;7.004;2024-02-23T05:46:36;4.30;99.90
52565;DHT22;38460;53.106;7.004;2024-02-23T05:49:02;4.30;99.90
52565;DHT22;38460;53.106;7.004;2024-02-23T05:51:30;4.30;99.90
52565;DHT22;38460;53.106;7.004;2024-02-23T05:53:57;4.30;99.90
52565;DHT22;38460;53.106;7.004;2024-02-23T05:56:23;4.30;99.90
52565;DHT22;38460;53.106;7.004;2024-02-23T05:58:51;4.40;99.90
52565;DHT22;38460;53.106;7.004;2024-02-23T06:01:18;4.30;99.90
52565;DHT22;38460;53.106;7.004;2024-02-23T06:03:44;4.30;99.90
52565;DHT22;38460;53.106;7.004;2024-02-23T06:06:10;4.30;99.90
52565;DHT22;38460;53.106;7.004;2024-02-23T06:08:36;4.30;99.90
52565;DHT22;38460;53.106;7.004;2024-02-23T06:11:03;4.30;99.90
52565;DHT22;38460;53.106;7.004;2024-02-23T06:13:30;4.40;99.90
52565;DHT22;38460;53.106;7.004;2024-02-23T06:15:56;4.40;99.90
52565;DHT22;38460;53.106;7.004;2024-02-23T06:18:21;4.40;99.90
52565;DHT22;38460;53.106;7.004;2024-02-23T06:20:49;4.40;99.90
52565;DHT22;38460;53.106;7.004;2024-02-23T06:23:16;4.40;99.90
52565;DHT22;38460;53.106;7.004;2024-02-23T06:25:42;4.40;99.90
52565;DHT22;38460;53.106;7.004;2024-02-23T06:28:07;4.40;99.90
52565;DHT22;38460;53.106;7.004;2024-02-23T06:30:33;4.40;99.90
52565;DHT22;38460;53.106;7.004;2024-02-23T06:32:59;4.40;99.90
52565;DHT22;38460;53.106;7.004;2024-02-23T06:35:24;4.40;99.90
52565;DHT22;38460;53.106;7.004;2024-02-23T06:37:50;4.40;99.90
52565;DHT22;38460;53.106;7.004;2024-02-23T06:40:16;4.40;99.90
52565;DHT22;38460;53.106;7.004;2024-02-23T06:42:43;4.40;99.90
52565;DHT22;38460;53.106;7.004;2024-02-23T06:45:09;4.30;99.90
52565;DHT22;38460;53.106;7.004;2024-02-23T06:47:35;4.30;99.90
52565;DHT22;38460;53.106;7.004;2024-02-23T06:50:01;4.30;99.90
52565;DHT22;38460;53.106;7.004;2024-02-23T06:52:29;4.30;99.90
52565;DHT22;38460;53.106;7.004;2024-02-23T06:54:54;4.30;99.90
52565;DHT22;38460;53.106;7.004;2024-02-23T06:57:20;4.30;99.90
52565;DHT22;38460;53.106;7.004;2024-02-23T06:59:46;4.20;99.90
52565;DHT22;38460;53.106;7.004;2024-02-23T07:02:11;4.20;99.90
52565;DHT22;38460;53.106;7.004;2024-02-23T07:04:37;4.30;99.90
52565;DHT22;38460;53.106;7.004;2024-02-23T07:07:03;4.30;99.90
52565;DHT22;38460;53.106;7.004;2024-02-23T07:09:34;4.30;99.90
52565;DHT22;38460;53.106;7.004;2024-02-23T07:12:00;4.30;99.90
52565;DHT22;38460;53.106;7.004;2024-02-23T07:14:26;4.30;99.90
52565;DHT22;38460;53.106;7.004;2024-02-23T07:16:52;4.40;99.90
52565;DHT22;38460;53.106;7.004;2024-02-23T07:19:18;4.40;99.90
52565;DHT22;38460;53.106;7.004;2024-02-23T07:21:45;4.40;99.90
52565;DHT22;38460;53.106;7.004;2024-02-23T07:24:11;4.40;99.90
52565;DHT22;38460;53.106;7.004;2024-02-23T07:26:37;4.50;99.90
52565;DHT22;38460;53.106;7.004;2024-02-23T07:29:03;4.50;99.90
52565;DHT22;38460;53.106;7.004;2024-02-23T07:31:29;4.50;99.90
52565;DHT22;38460;53.106;7.004;2024-02-23T07:33:55;4.50;99.90
52565;DHT22;38460;53.106;7.004;2024-02-23T07:36:21;4.50;99.90
52565;DHT22;38460;53.106;7.004;2024-02-23T07:38:47;4.60;99.90
52565;DHT22;38460;53.106;7.004;2024-02-23T07:41:13;4.60;99.90
52565;DHT22;38460;53.106;7.004;2024-02-23T07:43:40;4.60;99.90
52565;DHT22;38460;53.106;7.004;2024-02-23T07:46:05;4.60;99.90
52565;DHT22;38460;53.106;7.004;2024-02-23T07:48:34;4.60;99.90
52565;DHT22;38460;53.106;7.004;2024-02-23T07:51:02;4.70;99.90
52565;DHT22;38460;53.106;7.004;2024-02-23T07:53:28;4.70;99.90
52565;DHT22;38460;53.106;7.004;2024-02-23T07:55:54;4.80;99.90
52565;DHT22;38460;53.106;7.004;2024-02-23T07:58:20;4.80;99.90
52565;DHT22;38460;53.106;7.004;2024-02-23T08:00:46;4.80;99.90
52565;DHT22;38460;53.106;7.004;2024-02-23T08:03:12;4.80;99.90
52565;DHT22;38460;53.106;7.004;2024-02-23T08:05:38;4.90;99.90
52565;DHT22;38460;53.106;7.004;2024-02-23T08:08:04;4.90;99.90
52565;DHT22;38460;53.106;7.004;2024-02-23T08:10:32;4.90;99.90
52565;DHT22;38460;53.106;7.004;2024-02-23T08:12:59;4.90;99.90
52565;DHT22;38460;53.106;7.004;2024-02-23T08:15:25;5.00;99.90
52565;DHT22;38460;53.106;7.004;2024-02-23T08:17:50;5.00;99.90
52565;DHT22;38460;53.106;7.004;2024-02-23T08:20:16;5.00;99.90
52565;DHT22;38460;53.106;7.004;2024-02-23T08:22:42;5.10;99.90
52565;DHT22;38460;53.106;7.004;2024-02-23T08:25:08;5.10;99.90
52565;DHT22;38460;53.106;7.004;2024-02-23T08:27:34;5.10;99.90
52565;DHT22;38460;53.106;7.004;2024-02-23T08:29:59;5.10;99.90
52565;DHT22;38460;53.106;7.004;2024-02-23T08:32:25;5.10;99.90
52565;DHT22;38460;53.106;7.004;2024-02-23T08:34:51;5.20;99.90
52565;DHT22;38460;53.106;7.004;2024-02-23T08:37:18;5.20;99.90
52565;DHT22;38460;53.106;7.004;2024-02-23T08:39:44;5.20;99.90
52565;DHT22;38460;53.106;7.004;2024-02-23T08:42:10;5.20;99.90
52565;DHT22;38460;53.106;7.004;2024-02-23T08:44:36;5.20;99.90
52565;DHT22;38460;53.106;7.004;2024-02-23T08:47:04;5.30;99.90
52565;DHT22;38460;53.106;7.004;2024-02-23T08:49:30;5.30;99.90
52565;DHT22;38460;53.106;7.004;2024-02-23T08:51:56;5.30;99.90
52565;DHT22;38460;53.106;7.004;2024-02-23T08:54:23;5.40;99.90
52565;DHT22;38460;53.106;7.004;2024-02-23T08:56:49;5.40;99.90
52565;DHT22;38460;53.106;7.004;2024-02-23T08:59:15;5.40;99.90
52565;DHT22;38460;53.106;7.004;2024-02-23T09:01:41;5.50;99.90
52565;DHT22;38460;53.106;7.004;2024-02-23T09:04:07;5.50;99.90
52565;DHT22;38460;53.106;7.004;2024-02-23T09:06:33;5.50;99.90
52565;DHT22;38460;53.106;7.004;2024-02-23T09:08:59;5.60;99.90
52565;DHT22;38460;53.106;7.004;2024-02-23T09:11:26;5.60;99.90
52565;DHT22;38460;53.106;7.004;2024-02-23T09:13:51;5.60;99.90
52565;DHT22;38460;53.106;7.004;2024-02-23T09:16:17;5.70;99.90
52565;DHT22;38460;53.106;7.004;2024-02-23T09:18:44;5.70;99.90
52565;DHT22;38460;53.106;7.004;2024-02-23T09:21:10;5.70;99.90
52565;DHT22;38460;53.106;7.004;2024-02-23T09:23:35;5.80;99.90
52565;DHT22;38460;53.106;7.004;2024-02-23T09:26:01;5.80;99.90
52565;DHT22;38460;53.106;7.004;2024-02-23T09:28:30;5.80;99.90
52565;DHT22;38460;53.106;7.004;2024-02-23T09:30:55;5.90;99.90
52565;DHT22;38460;53.106;7.004;2024-02-23T09:33:21;5.90;99.90
52565;DHT22;38460;53.106;7.004;2024-02-23T09:35:47;6.00;99.90
52565;DHT22;38460;53.106;7.004;2024-02-23T09:38:15;6.00;99.90
52565;DHT22;38460;53.106;7.004;2024-02-23T09:40:41;6.10;99.90
52565;DHT22;38460;53.106;7.004;2024-02-23T09:43:08;6.20;99.90
52565;DHT22;38460;53.106;7.004;2024-02-23T09:45:34;6.40;99.90
52565;DHT22;38460;53.106;7.004;2024-02-23T09:48:00;6.50;99.90
52565;DHT22;38460;53.106;7.004;2024-02-23T09:50:29;6.60;99.90
52565;DHT22;38460;53.106;7.004;2024-02-23T09:52:57;6.70;99.90
52565;DHT22;38460;53.106;7.004;2024-02-23T09:55:24;6.80;99.90
52565;DHT22;38460;53.106;7.004;2024-02-23T09:57:52;6.80;99.90
52565;DHT22;38460;53.106;7.004;2024-02-23T10:00:23;6.80;99.90
52565;DHT22;38460;53.106;7.004;2024-02-23T10:02:49;6.80;99.90
52565;DHT22;38460;53.106;7.004;2024-02-23T10:05:16;6.80;99.90
52565;DHT22;38460;53.106;7.004;2024-02-23T10:07:42;6.80;99.90
52565;DHT22;38460;53.106;7.004;2024-02-23T10:10:10;6.80;99.90
52565;DHT22;38460;53.106;7.004;2024-02-23T10:12:37;6.80;99.90
52565;DHT22;38460;53.106;7.004;2024-02-23T10:15:03;6.80;99.90
52565;DHT22;38460;53.106;7.004;2024-02-23T10:17:32;6.80;99.90
52565;DHT22;38460;53.106;7.004;2024-02-23T10:20:01;6.70;99.90
52565;DHT22;38460;53.106;7.004;2024-02-23T10:22:30;6.70;99.90
52565;DHT22;38460;53.106;7.004;2024-02-23T10:24:56;6.80;99.90
52565;DHT22;38460;53.106;7.004;2024-02-23T10:27:23;6.70;99.90
52565;DHT22;38460;53.106;7.004;2024-02-23T10:29:50;6.70;99.90
52565;DHT22;38460;53.106;7.004;2024-02-23T10:32:16;6.80;99.90
52565;DHT22;38460;53.106;7.004;2024-02-23T10:34:43;6.80;99.90
52565;DHT22;38460;53.106;7.004;2024-02-23T10:37:10;6.80;99.90
52565;DHT22;38460;53.106;7.004;2024-02-23T10:39:38;6.80;99.90
52565;DHT22;38460;53.106;7.004;2024-02-23T10:42:09;6.80;99.90
52565;DHT22;38460;53.106;7.004;2024-02-23T10:44:35;6.80;99.90
52565;DHT22;38460;53.106;7.004;2024-02-23T10:47:02;6.80;99.90
52565;DHT22;38460;53.106;7.004;2024-02-23T10:49:29;6.80;99.90
52565;DHT22;38460;53.106;7.004;2024-02-23T10:51:56;6.80;99.90
52565;DHT22;38460;53.106;7.004;2024-02-23T10:54:22;6.80;99.90
52565;DHT22;38460;53.106;7.004;2024-02-23T10:56:51;6.80;99.90
52565;DHT22;38460;53.106;7.004;2024-02-23T10:59:18;6.90;99.90
52565;DHT22;38460;53.106;7.004;2024-02-23T11:01:54;6.90;99.90
52565;DHT22;38460;53.106;7.004;2024-02-23T11:04:23;6.90;99.90
52565;DHT22;38460;53.106;7.004;2024-02-23T11:06:55;6.90;99.90
52565;DHT22;38460;53.106;7.004;2024-02-23T11:09:24;6.90;99.90
52565;DHT22;38460;53.106;7.004;2024-02-23T11:11:57;6.90;99.90
52565;DHT22;38460;53.106;7.004;2024-02-23T11:14:36;6.90;99.90
52565;DHT22;38460;53.106;7.004;2024-02-23T11:17:03;6.90;99.90
52565;DHT22;38460;53.106;7.004;2024-02-23T11:19:36;6.90;99.90
52565;DHT22;38460;53.106;7.004;2024-02-23T11:22:03;6.90;99.90
52565;DHT22;38460;53.106;7.004;2024-02-23T11:24:30;6.90;99.90
52565;DHT22;38460;53.106;7.004;2024-02-23T11:27:00;6.90;99.90
52565;DHT22;38460;53.106;7.004;2024-02-23T11:29:33;6.80;99.90
52565;DHT22;38460;53.106;7.004;2024-02-23T11:32:00;6.80;99.90
52565;DHT22;38460;53.106;7.004;2024-02-23T11:34:30;6.90;99.90
52565;DHT22;38460;53.106;7.004;2024-02-23T11:36:56;6.90;99.90
52565;DHT22;38460;53.106;7.004;2024-02-23T11:39:24;6.90;99.90
52565;DHT22;38460;53.106;7.004;2024-02-23T11:41:50;6.90;99.90
52565;DHT22;38460;53.106;7.004;2024-02-23T11:44:16;6.90;99.90
52565;DHT22;38460;53.106;7.004;2024-02-23T11:46:46;7.00;99.90
52565;DHT22;38460;53.106;7.004;2024-02-23T11:49:14;7.00;99.90
52565;DHT22;38460;53.106;7.004;2024-02-23T11:51:40;7.00;99.90
52565;DHT22;38460;53.106;7.004;2024-02-23T11:54:06;7.10;99.90
52565;DHT22;38460;53.106;7.004;2024-02-23T11:56:32;7.10;99.90
52565;DHT22;38460;53.106;7.004;2024-02-23T11:58:58;7.10;99.90
52565;DHT22;38460;53.106;7.004;2024-02-23T12:01:24;7.10;99.90
52565;DHT22;38460;53.106;7.004;2024-02-23T12:03:50;7.10;99.90
52565;DHT22;38460;53.106;7.004;2024-02-23T12:06:17;7.10;99.90
52565;DHT22;38460;53.106;7.004;2024-02-23T12:08:43;7.00;99.90
52565;DHT22;38460;53.106;7.004;2024-02-23T12:11:11;7.00;99.90
52565;DHT22;38460;53.106;7.004;2024-02-23T12:13:39;6.90;99.90
52565;DHT22;38460;53.106;7.004;2024-02-23T12:16:07;6.90;99.90
52565;DHT22;38460;53.106;7.004;2024-02-23T12:18:33;6.80;99.90
52565;DHT22;38460;53.106;7.004;2024-02-23T12:21:04;6.80;99.90
52565;DHT22;38460;53.106;7.004;2024-02-23T12:23:45;6.80;99.90
52565;DHT22;38460;53.106;7.004;2024-02-23T12:26:13;6.80;99.90
52565;DHT22;38460;53.106;7.004;2024-02-23T12:28:39;6.80;99.90
52565;DHT22;38460;53.106;7.004;2024-02-23T12:31:06;6.70;99.90
52565;DHT22;38460;53.106;7.004;2024-02-23T12:33:34;6.70;99.90
52565;DHT22;38460;53.106;7.004;2024-02-23T12:36:00;6.60;99.90
52565;DHT22;38460;53.106;7.004;2024-02-23T12:38:26;6.60;99.90
52565;DHT22;38460;53.106;7.004;2024-02-23T12:40:52;6.60;99.90
52565;DHT22;38460;53.106;7.004;2024-02-23T12:43:18;6.60;99.90
52565;DHT22;38460;53.106;7.004;2024-02-23T12:45:47;6.60;99.90
52565;DHT22;38460;53.106;7.004;2024-02-23T12:48:17;6.50;99.90
52565;DHT22;38460;53.106;7.004;2024-02-23T12:50:43;6.60;99.90
52565;DHT22;38460;53.106;7.004;2024-02-23T12:53:35;6.50;99.90
52565;DHT22;38460;53.106;7.004;2024-02-23T12:56:08;6.60;99.90
52565;DHT22;38460;53.106;7.004;2024-02-23T12:58:52;6.50;99.90
52565;DHT22;38460;53.106;7.004;2024-02-23T13:01:19;6.50;99.90
52565;DHT22;38460;53.106;7.004;2024-02-23T13:03:45;6.50;99.90
52565;DHT22;38460;53.106;7.004;2024-02-23T13:06:11;6.50;99.90
52565;DHT22;38460;53.106;7.004;2024-02-23T13:08:38;6.50;99.90
52565;DHT22;38460;53.106;7.004;2024-02-23T13:11:06;6.50;99.90
52565;DHT22;38460;53.106;7.004;2024-02-23T13:13:32;6.50;99.90
52565;DHT22;38460;53.106;7.004;2024-02-23T13:15:58;6.40;99.90
52565;DHT22;38460;53.106;7.004;2024-02-23T13:18:24;6.50;99.90
52565;DHT22;38460;53.106;7.004;2024-02-23T13:20:50;6.50;99.90
52565;DHT22;38460;53.106;7.004;2024-02-23T13:23:16;6.30;99.90
52565;DHT22;38460;53.106;7.004;2024-02-23T13:25:42;6.50;99.90
52565;DHT22;38460;53.106;7.004;2024-02-23T13:28:08;6.50;99.90
52565;DHT22;38460;53.106;7.004;2024-02-23T13:30:35;6.50;99.90
52565;DHT22;38460;53.106;7.004;2024-02-23T13:33:02;6.50;99.90
52565;DHT22;38460;53.106;7.004;2024-02-23T13:35:28;6.50;99.90
52565;DHT22;38460;53.106;7.004;2024-02-23T13:37:54;6.50;99.90
52565;DHT22;38460;53.106;7.004;2024-02-23T13:40:20;6.50;99.90
52565;DHT22;38460;53.106;7.004;2024-02-23T13:42:46;6.50;99.90
52565;DHT22;38460;53.106;7.004;2024-02-23T13:45:15;6.50;99.90
52565;DHT22;38460;53.106;7.004;2024-02-23T13:47:42;6.50;99.90
52565;DHT22;38460;53.106;7.004;2024-02-23T13:50:10;6.60;99.90
52565;DHT22;38460;53.106;7.004;2024-02-23T13:52:37;6.60;99.90
52565;DHT22;38460;53.106;7.004;2024-02-23T13:55:03;6.70;99.90
52565;DHT22;38460;53.106;7.004;2024-02-23T13:57:29;6.70;99.90
52565;DHT22;38460;53.106;7.004;2024-02-23T13:59:54;6.80;99.90
52565;DHT22;38460;53.106;7.004;2024-02-23T14:02:26;6.80;99.90
52565;DHT22;38460;53.106;7.004;2024-02-23T14:04:59;6.80;99.90
52565;DHT22;38460;53.106;7.004;2024-02-23T14:07:26;6.80;99.90
52565;DHT22;38460;53.106;7.004;2024-02-23T14:09:52;6.80;99.90
52565;DHT22;38460;53.106;7.004;2024-02-23T14:12:17;6.90;99.90
52565;DHT22;38460;53.106;7.004;2024-02-23T14:14:44;6.90;99.90
52565;DHT22;38460;53.106;7.004;2024-02-23T14:17:10;7.40;99.90
52565;DHT22;38460;53.106;7.004;2024-02-23T14:19:36;6.90;99.90
52565;DHT22;38460;53.106;7.004;2024-02-23T14:22:02;6.90;99.90
52565;DHT22;38460;53.106;7.004;2024-02-23T14:24:27;6.90;99.90
52565;DHT22;38460;53.106;7.004;2024-02-23T14:26:53;6.80;99.90
52565;DHT22;38460;53.106;7.004;2024-02-23T14:29:19;6.20;99.90
52565;DHT22;38460;53.106;7.004;2024-02-23T14:31:44;6.80;99.90
52565;DHT22;38460;53.106;7.004;2024-02-23T14:34:10;6.80;99.90
52565;DHT22;38460;53.106;7.004;2024-02-23T14:36:36;6.80;99.90
52565;DHT22;38460;53.106;7.004;2024-02-23T14:39:02;6.80;99.90
52565;DHT22;38460;53.106;7.004;2024-02-23T14:41:30;6.80;99.90
52565;DHT22;38460;53.106;7.004;2024-02-23T14:43:55;6.80;99.90
52565;DHT22;38460;53.106;7.004;2024-02-23T14:46:21;6.80;99.90
52565;DHT22;38460;53.106;7.004;2024-02-23T14:48:47;6.80;99.90
52565;DHT22;38460;53.106;7.004;2024-02-23T14:51:17;6.80;99.90
52565;DHT22;38460;53.106;7.004;2024-02-23T14:53:42;6.70;99.90
52565;DHT22;38460;53.106;7.004;2024-02-23T14:56:08;6.80;99.90
52565;DHT22;38460;53.106;7.004;2024-02-23T14:58:34;6.80;99.90
52565;DHT22;38460;53.106;7.004;2024-02-23T15:01:00;6.80;99.90
52565;DHT22;38460;53.106;7.004;2024-02-23T15:03:26;6.80;99.90
52565;DHT22;38460;53.106;7.004;2024-02-23T15:05:52;6.80;99.90
52565;DHT22;38460;53.106;7.004;2024-02-23T15:08:17;6.90;99.90
52565;DHT22;38460;53.106;7.004;2024-02-23T15:10:43;6.90;99.90
52565;DHT22;38460;53.106;7.004;2024-02-23T15:13:09;6.90;99.90
52565;DHT22;38460;53.106;7.004;2024-02-23T15:15:35;6.90;99.90
52565;DHT22;38460;53.106;7.004;2024-02-23T15:18:06;6.90;99.90
52565;DHT22;38460;53.106;7.004;2024-02-23T15:20:32;6.90;99.90
52565;DHT22;38460;53.106;7.004;2024-02-23T15:22:58;6.90;99.90
52565;DHT22;38460;53.106;7.004;2024-02-23T15:25:23;6.90;99.90
52565;DHT22;38460;53.106;7.004;2024-02-23T15:27:49;6.90;99.90
52565;DHT22;38460;53.106;7.004;2024-02-23T15:30:18;7.00;99.90
52565;DHT22;38460;53.106;7.004;2024-02-23T15:32:43;6.90;99.90
52565;DHT22;38460;53.106;7.004;2024-02-23T15:35:09;7.00;99.90
52565;DHT22;38460;53.106;7.004;2024-02-23T15:37:35;7.00;99.90
52565;DHT22;38460;53.106;7.004;2024-02-23T15:40:01;7.00;99.90